createdAt,value
2017-09-25T00:00:11.784Z,62.39
2017-09-25T00:01:20.764Z,62.39
2017-09-25T00:02:30.040Z,62.48
2017-09-25T00:03:39.364Z,62.68
2017-09-25T00:04:48.335Z,62.29
2017-09-25T00:05:58.082Z,62.29
2017-09-25T00:07:07.362Z,62.39
2017-09-25T00:08:16.646Z,62.48
2017-09-25T00:09:25.928Z,62.58
2017-09-25T00:10:34.899Z,62.39
2017-09-25T00:11:43.966Z,62.39
2017-09-25T00:12:52.606Z,62.39
2017-09-25T00:14:01.588Z,62.39
2017-09-25T00:15:10.564Z,62.19
2017-09-25T00:16:20.151Z,62.39
2017-09-25T00:17:29.113Z,62.39
2017-09-25T00:18:38.104Z,62.39
2017-09-25T00:19:47.684Z,62.87
2017-09-25T00:20:56.973Z,62.39
2017-09-25T00:22:05.944Z,62.39
2017-09-25T00:23:14.922Z,61.91
2017-09-25T00:24:23.887Z,62.29
2017-09-25T00:25:33.510Z,62.48
2017-09-25T00:26:42.814Z,62.77
2017-09-25T00:27:52.091Z,62.68
2017-09-25T00:29:01.242Z,62.87
2017-09-25T00:30:10.203Z,62.96
2017-09-25T00:31:18.852Z,62.68
2017-09-25T00:32:28.134Z,62.58
2017-09-25T00:33:37.803Z,62.58
2017-09-25T00:34:47.294Z,62.58
2017-09-25T00:35:56.248Z,62.68
2017-09-25T00:37:05.262Z,62.58
2017-09-25T00:38:14.574Z,62.77
2017-09-25T00:39:24.126Z,62.58
2017-09-25T00:40:33.082Z,62.65
2017-09-25T00:41:42.414Z,62.68
2017-09-25T00:42:51.390Z,62.87
2017-09-25T00:44:00.058Z,62.48
2017-09-25T00:45:09.372Z,62.77
2017-09-25T00:46:18.442Z,62.68
2017-09-25T00:47:27.414Z,62.58
2017-09-25T00:48:36.070Z,62.68
2017-09-25T00:49:45.352Z,62.65
2017-09-25T00:50:54.676Z,62.65
2017-09-25T00:52:03.691Z,62.68
2017-09-25T00:53:12.972Z,62.58
2017-09-25T00:54:22.267Z,62.55
2017-09-25T00:55:30.909Z,62.65
2017-09-25T00:56:39.902Z,62.39
2017-09-25T00:57:49.326Z,62.48
2017-09-25T00:58:57.998Z,62.39
2017-09-25T01:00:06.669Z,63.03
2017-09-25T01:01:15.321Z,62.84
2017-09-25T01:02:24.960Z,62.74
2017-09-25T01:03:34.533Z,62.74
2017-09-25T01:04:43.818Z,62.65
2017-09-25T01:05:52.810Z,62.36
2017-09-25T01:07:02.106Z,62.26
2017-09-25T01:08:11.696Z,62.65
2017-09-25T01:09:21.388Z,62.65
2017-09-25T01:10:30.348Z,62.26
2017-09-25T01:11:39.645Z,62.84
2017-09-25T01:12:49.254Z,62.93
2017-09-25T01:13:58.225Z,63.03
2017-09-25T01:15:07.062Z,63.03
2017-09-25T01:16:15.716Z,62.74
2017-09-25T01:17:24.996Z,63.22
2017-09-25T01:18:35.219Z,63.03
2017-09-25T01:19:44.202Z,63.12
2017-09-25T01:20:52.850Z,63.12
2017-09-25T01:22:02.150Z,62.93
2017-09-25T01:23:11.123Z,62.93
2017-09-25T01:24:20.095Z,62.93
2017-09-25T01:25:29.372Z,62.74
2017-09-25T01:26:38.665Z,62.55
2017-09-25T01:27:47.629Z,62.65
2017-09-25T01:28:57.229Z,62.74
2017-09-25T01:30:06.520Z,62.74
2017-09-25T01:31:15.785Z,62.84
2017-09-25T01:32:25.249Z,63.12
2017-09-25T01:33:34.208Z,63.12
2017-09-25T01:34:43.480Z,63.03
2017-09-25T01:35:52.119Z,63.12
2017-09-25T01:37:00.772Z,63.22
2017-09-25T01:38:10.158Z,62.93
2017-09-25T01:39:19.120Z,63.03
2017-09-25T01:40:27.778Z,63.03
2017-09-25T01:41:37.114Z,63.03
2017-09-25T01:42:46.079Z,63.32
2017-09-25T01:43:55.043Z,63.32
2017-09-25T01:45:04.979Z,63.32
2017-09-25T01:46:13.636Z,63.42
2017-09-25T01:47:22.298Z,63.12
2017-09-25T01:48:31.272Z,63.12
2017-09-25T01:49:40.530Z,63.22
2017-09-25T01:50:49.523Z,63.12
2017-09-25T01:51:59.116Z,63.32
2017-09-25T01:53:07.764Z,63.22
2017-09-25T01:54:17.074Z,63.12
2017-09-25T01:55:25.829Z,63.12
2017-09-25T01:56:34.492Z,63.42
2017-09-25T01:57:43.768Z,63.42
2017-09-25T01:58:53.350Z,63.32
2017-09-25T02:00:01.996Z,63.22
2017-09-25T02:01:11.423Z,63.32
2017-09-25T02:02:20.705Z,63.12
2017-09-25T02:03:29.367Z,63.42
2017-09-25T02:04:38.023Z,63.22
2017-09-25T02:05:47.625Z,63.32
2017-09-25T02:06:56.367Z,63.22
2017-09-25T02:08:05.332Z,63.42
2017-09-25T02:09:14.300Z,63.32
2017-09-25T02:10:22.942Z,63.29
2017-09-25T02:11:31.598Z,63.48
2017-09-25T02:12:40.559Z,63.42
2017-09-25T02:13:49.220Z,63.38
2017-09-25T02:14:58.826Z,63.48
2017-09-25T02:16:07.479Z,63.38
2017-09-25T02:17:16.769Z,63.38
2017-09-25T02:18:26.361Z,63.19
2017-09-25T02:19:35.010Z,63.48
2017-09-25T02:20:43.968Z,63.7
2017-09-25T02:21:52.928Z,63.7
2017-09-25T02:23:02.520Z,63.57
2017-09-25T02:24:11.479Z,63.38
2017-09-25T02:25:20.433Z,63.19
2017-09-25T02:26:29.089Z,63.19
2017-09-25T02:27:38.049Z,63.03
2017-09-25T02:28:47.043Z,63.48
2017-09-25T02:29:56.144Z,63.42
2017-09-25T02:31:05.118Z,63.76
2017-09-25T02:32:14.089Z,63.67
2017-09-25T02:33:23.042Z,63
2017-09-25T02:34:32.010Z,63.38
2017-09-25T02:35:41.612Z,63.09
2017-09-25T02:36:50.268Z,63.48
2017-09-25T02:37:59.546Z,63.12
2017-09-25T02:39:08.205Z,63.29
2017-09-25T02:40:17.504Z,63
2017-09-25T02:41:26.805Z,63.32
2017-09-25T02:42:36.076Z,63.38
2017-09-25T02:43:45.050Z,63.29
2017-09-25T02:44:53.697Z,63.29
2017-09-25T02:46:02.363Z,63.19
2017-09-25T02:47:11.622Z,63.32
2017-09-25T02:48:20.581Z,63.32
2017-09-25T02:49:30.186Z,63.19
2017-09-25T02:50:39.800Z,63.32
2017-09-25T02:51:49.070Z,63.42
2017-09-25T02:52:58.344Z,63.32
2017-09-25T02:54:07.311Z,63.29
2017-09-25T02:55:16.275Z,63
2017-09-25T02:56:25.548Z,63.38
2017-09-25T02:57:34.852Z,63.09
2017-09-25T02:58:43.835Z,63.19
2017-09-25T02:59:52.803Z,63.32
2017-09-25T03:01:01.509Z,63.32
2017-09-25T03:02:11.106Z,63.09
2017-09-25T03:03:20.389Z,63
2017-09-25T03:04:29.579Z,63.67
2017-09-25T03:05:38.552Z,63.57
2017-09-25T03:06:47.556Z,63.03
2017-09-25T03:07:56.838Z,63.19
2017-09-25T03:09:06.433Z,63.76
2017-09-25T03:10:15.085Z,63.48
2017-09-25T03:11:24.353Z,63.48
2017-09-25T03:12:32.991Z,63.29
2017-09-25T03:13:41.653Z,63.29
2017-09-25T03:14:50.322Z,63.48
2017-09-25T03:15:59.580Z,63.29
2017-09-25T03:17:08.263Z,63.29
2017-09-25T03:18:17.547Z,63.57
2017-09-25T03:19:27.181Z,63.38
2017-09-25T03:20:36.474Z,63.38
2017-09-25T03:21:45.440Z,63.48
2017-09-25T03:22:54.092Z,63.57
2017-09-25T03:24:03.058Z,63.48
2017-09-25T03:25:11.719Z,63.48
2017-09-25T03:26:20.680Z,63.76
2017-09-25T03:27:29.958Z,63.76
2017-09-25T03:28:39.247Z,63.48
2017-09-25T03:29:48.519Z,63.67
2017-09-25T03:30:57.816Z,63.76
2017-09-25T03:32:07.105Z,63.57
2017-09-25T03:33:16.367Z,63.29
2017-09-25T03:34:25.332Z,63.57
2017-09-25T03:35:34.284Z,63.48
2017-09-25T03:36:42.926Z,63.76
2017-09-25T03:37:52.232Z,63.76
2017-09-25T03:39:01.189Z,63.48
2017-09-25T03:40:11.107Z,63.48
2017-09-25T03:41:19.761Z,63.76
2017-09-25T03:42:28.711Z,63.57
2017-09-25T03:43:37.986Z,63.48
2017-09-25T03:44:46.743Z,64.05
2017-09-25T03:45:56.643Z,64.05
2017-09-25T03:47:05.915Z,63.86
2017-09-25T03:48:14.869Z,64.15
2017-09-25T03:49:23.849Z,63.76
2017-09-25T03:50:33.755Z,63.76
2017-09-25T03:51:42.410Z,63.96
2017-09-25T03:52:51.686Z,63.38
2017-09-25T03:54:00.637Z,63.38
2017-09-25T03:55:09.945Z,63.67
2017-09-25T03:56:18.943Z,63.67
2017-09-25T03:57:27.579Z,63.67
2017-09-25T03:58:36.876Z,63.96
2017-09-25T03:59:45.525Z,64.05
2017-09-25T04:00:54.178Z,64.22
2017-09-25T04:02:04.074Z,64.25
2017-09-25T04:03:13.365Z,64.15
2017-09-25T04:04:22.638Z,64.43
2017-09-25T04:05:31.907Z,64.43
2017-09-25T04:06:41.193Z,63.96
2017-09-25T04:07:50.314Z,64.43
2017-09-25T04:08:59.595Z,64.25
2017-09-25T04:10:08.878Z,64.25
2017-09-25T04:11:17.555Z,64.22
2017-09-25T04:12:26.514Z,64.05
2017-09-25T04:13:35.321Z,64.25
2017-09-25T04:14:44.587Z,64.25
2017-09-25T04:15:53.224Z,64.22
2017-09-25T04:17:02.222Z,64.22
2017-09-25T04:18:11.497Z,64.12
2017-09-25T04:19:20.461Z,64.31
2017-09-25T04:20:29.731Z,64.15
2017-09-25T04:21:38.410Z,64.25
2017-09-25T04:22:47.456Z,64.25
2017-09-25T04:23:56.105Z,64.05
2017-09-25T04:25:05.059Z,64.31
2017-09-25T04:26:14.030Z,63.96
2017-09-25T04:27:23.609Z,63.76
2017-09-25T04:28:32.894Z,64.43
2017-09-25T04:29:42.512Z,63.96
2017-09-25T04:30:51.471Z,63.92
2017-09-25T04:32:01.073Z,63.92
2017-09-25T04:33:09.740Z,63.96
2017-09-25T04:34:19.366Z,64.34
2017-09-25T04:35:28.646Z,64.25
2017-09-25T04:36:37.336Z,64.22
2017-09-25T04:37:46.346Z,64.15
2017-09-25T04:38:55.743Z,64.25
2017-09-25T04:40:05.059Z,64.22
2017-09-25T04:41:14.849Z,63.92
2017-09-25T04:42:24.372Z,63.96
2017-09-25T04:43:33.428Z,64.25
2017-09-25T04:44:42.768Z,64.25
2017-09-25T04:45:52.351Z,64.25
2017-09-25T04:47:01.639Z,64.22
2017-09-25T04:48:10.974Z,64.02
2017-09-25T04:49:20.259Z,64.22
2017-09-25T04:50:29.556Z,64.12
2017-09-25T04:51:39.161Z,63.76
2017-09-25T04:52:48.747Z,64.22
2017-09-25T04:53:57.499Z,64.15
2017-09-25T04:55:07.105Z,63.96
2017-09-25T04:56:16.097Z,63.64
2017-09-25T04:57:25.078Z,63.57
2017-09-25T04:58:34.706Z,63.29
2017-09-25T04:59:44.308Z,63.19
2017-09-25T05:00:53.282Z,62.45
2017-09-25T05:02:02.260Z,62.26
2017-09-25T05:03:11.234Z,61.69
2017-09-25T05:04:20.239Z,61.88
2017-09-25T05:05:29.042Z,61.3
2017-09-25T05:06:38.035Z,61.24
2017-09-25T05:07:47.041Z,60.75
2017-09-25T05:08:55.724Z,60.38
2017-09-25T05:10:04.375Z,60.4
2017-09-25T05:11:13.523Z,60.11
2017-09-25T05:12:22.543Z,59.54
2017-09-25T05:13:31.500Z,59.64
2017-09-25T05:14:40.771Z,59.16
2017-09-25T05:15:50.106Z,59.47
2017-09-25T05:16:59.225Z,59.09
2017-09-25T05:18:08.248Z,58.89
2017-09-25T05:19:17.541Z,58.8
2017-09-25T05:20:26.208Z,58.54
2017-09-25T05:21:35.515Z,58.64
2017-09-25T05:22:44.190Z,57.97
2017-09-25T05:23:53.507Z,58.15
2017-09-25T05:25:02.276Z,58.06
2017-09-25T05:26:12.093Z,57.6
2017-09-25T05:27:21.708Z,57.7
2017-09-25T05:28:30.837Z,57.8
2017-09-25T05:29:39.829Z,57.51
2017-09-25T05:30:49.133Z,57.7
2017-09-25T05:31:57.783Z,57.32
2017-09-25T05:33:06.509Z,57.15
2017-09-25T05:34:15.490Z,57.13
2017-09-25T05:35:24.136Z,56.87
2017-09-25T05:36:33.753Z,56.96
2017-09-25T05:37:43.364Z,56.67
2017-09-25T05:38:52.666Z,56.96
2017-09-25T05:40:01.656Z,56.77
2017-09-25T05:41:11.002Z,56.87
2017-09-25T05:42:19.992Z,56.58
2017-09-25T05:43:28.660Z,56.29
2017-09-25T05:44:37.941Z,56.12
2017-09-25T05:45:46.920Z,56.51
2017-09-25T05:46:55.898Z,56.6
2017-09-25T05:48:05.832Z,56.32
2017-09-25T05:49:14.813Z,56.32
2017-09-25T05:50:23.801Z,56.22
2017-09-25T05:51:33.377Z,56.41
2017-09-25T05:52:42.032Z,56.32
2017-09-25T05:53:51.669Z,56.7
2017-09-25T05:55:00.972Z,56.15
2017-09-25T05:56:10.904Z,56.03
2017-09-25T05:57:20.193Z,55.77
2017-09-25T05:58:29.533Z,56.63
2017-09-25T05:59:38.525Z,56.73
2017-09-25T06:00:47.183Z,56.54
2017-09-25T06:01:56.197Z,56.63
2017-09-25T06:03:05.477Z,56.54
2017-09-25T06:04:14.789Z,56.54
2017-09-25T06:05:23.485Z,56.44
2017-09-25T06:06:32.479Z,56.25
2017-09-25T06:07:41.173Z,56.44
2017-09-25T06:08:50.147Z,56.35
2017-09-25T06:09:59.127Z,56.25
2017-09-25T06:11:07.800Z,56.44
2017-09-25T06:12:16.466Z,56.15
2017-09-25T06:13:25.761Z,56.25
2017-09-25T06:14:35.209Z,56.25
2017-09-25T06:15:44.812Z,56.44
2017-09-25T06:16:53.818Z,56.35
2017-09-25T06:18:03.128Z,56.35
2017-09-25T06:19:12.150Z,56.35
2017-09-25T06:20:21.928Z,56.25
2017-09-25T06:21:30.598Z,56.35
2017-09-25T06:22:39.284Z,56.35
2017-09-25T06:23:47.965Z,56.18
2017-09-25T06:24:57.587Z,56.44
2017-09-25T06:26:06.419Z,56.27
2017-09-25T06:27:15.395Z,56.37
2017-09-25T06:28:24.101Z,56.27
2017-09-25T06:29:33.114Z,56.47
2017-09-25T06:30:41.794Z,56.47
2017-09-25T06:31:50.513Z,56.57
2017-09-25T06:32:59.818Z,56.37
2017-09-25T06:34:09.142Z,56.37
2017-09-25T06:35:18.450Z,56.47
2017-09-25T06:36:27.429Z,56.66
2017-09-25T06:37:36.863Z,56.37
2017-09-25T06:38:46.195Z,56.57
2017-09-25T06:39:55.456Z,56.57
2017-09-25T06:41:04.748Z,56.47
2017-09-25T06:42:13.717Z,56.37
2017-09-25T06:43:23.484Z,56.37
2017-09-25T06:44:32.797Z,56.47
2017-09-25T06:45:42.016Z,56.76
2017-09-25T06:46:51.373Z,56.76
2017-09-25T06:48:00.339Z,56.66
2017-09-25T06:49:09.976Z,56.57
2017-09-25T06:50:18.887Z,56.57
2017-09-25T06:51:31.081Z,56.47
2017-09-25T06:52:40.080Z,56.27
2017-09-25T06:53:49.096Z,56.57
2017-09-25T06:54:58.471Z,56.37
2017-09-25T06:56:07.472Z,56.37
2017-09-25T06:57:16.139Z,56.57
2017-09-25T06:58:25.446Z,56.57
2017-09-25T06:59:34.423Z,56.37
2017-09-25T07:00:43.722Z,56.47
2017-09-25T07:01:52.710Z,56.57
2017-09-25T07:03:01.389Z,56.27
2017-09-25T07:04:10.389Z,56.76
2017-09-25T07:05:19.366Z,56.37
2017-09-25T07:06:28.087Z,56.76
2017-09-25T07:07:37.370Z,56.57
2017-09-25T07:08:47.280Z,56.66
2017-09-25T07:09:56.603Z,56.85
2017-09-25T07:11:05.263Z,56.76
2017-09-25T07:12:14.259Z,57.05
2017-09-25T07:13:23.233Z,56.95
2017-09-25T07:14:32.242Z,57.14
2017-09-25T07:15:42.163Z,57.34
2017-09-25T07:16:51.787Z,57.05
2017-09-25T07:18:00.801Z,57.14
2017-09-25T07:19:10.094Z,57.14
2017-09-25T07:20:19.072Z,57.14
2017-09-25T07:21:28.682Z,57.14
2017-09-25T07:22:37.744Z,57.14
2017-09-25T07:23:46.438Z,57.24
2017-09-25T07:24:55.510Z,57.24
2017-09-25T07:26:04.949Z,57.05
2017-09-25T07:27:14.555Z,56.95
2017-09-25T07:28:23.562Z,57.05
2017-09-25T07:29:32.550Z,57.05
2017-09-25T07:30:42.177Z,56.76
2017-09-25T07:31:51.502Z,56.76
2017-09-25T07:33:00.810Z,56.79
2017-09-25T07:34:09.690Z,56.85
2017-09-25T07:35:18.401Z,56.88
2017-09-25T07:36:28.486Z,56.88
2017-09-25T07:37:37.268Z,56.85
2017-09-25T07:38:47.275Z,57.05
2017-09-25T07:39:55.958Z,56.95
2017-09-25T07:41:05.247Z,56.88
2017-09-25T07:42:13.918Z,56.98
2017-09-25T07:43:22.590Z,57.05
2017-09-25T07:44:31.571Z,57.05
2017-09-25T07:45:40.544Z,56.88
2017-09-25T07:46:49.831Z,56.79
2017-09-25T07:47:58.803Z,57.07
2017-09-25T07:49:07.487Z,57.07
2017-09-25T07:50:16.790Z,56.98
2017-09-25T07:51:26.094Z,56.88
2017-09-25T07:52:35.801Z,56.88
2017-09-25T07:53:44.829Z,56.98
2017-09-25T07:54:53.836Z,56.98
2017-09-25T07:56:02.507Z,56.98
2017-09-25T07:57:11.896Z,56.88
2017-09-25T07:58:21.221Z,56.88
2017-09-25T07:59:30.422Z,56.76
2017-09-25T08:00:40.044Z,56.69
2017-09-25T08:01:49.665Z,57.07
2017-09-25T08:02:59.312Z,56.69
2017-09-25T08:04:08.063Z,57.17
2017-09-25T08:05:16.729Z,57.17
2017-09-25T08:06:25.710Z,57.07
2017-09-25T08:07:34.405Z,56.98
2017-09-25T08:08:43.715Z,57.27
2017-09-25T08:09:53.032Z,56.88
2017-09-25T08:11:01.706Z,57.17
2017-09-25T08:12:10.387Z,57.07
2017-09-25T08:13:19.468Z,57.17
2017-09-25T08:14:28.487Z,57.17
2017-09-25T08:15:37.463Z,57.17
2017-09-25T08:16:46.116Z,57.17
2017-09-25T08:17:55.414Z,57.17
2017-09-25T08:19:04.411Z,57.17
2017-09-25T08:20:14.350Z,57.17
2017-09-25T08:21:23.660Z,56.98
2017-09-25T08:22:32.332Z,56.98
2017-09-25T08:23:41.324Z,56.98
2017-09-25T08:24:49.987Z,57.07
2017-09-25T08:25:58.665Z,56.98
2017-09-25T08:27:07.946Z,57.17
2017-09-25T08:28:17.258Z,56.98
2017-09-25T08:29:26.288Z,57.17
2017-09-25T08:30:35.636Z,56.98
2017-09-25T08:31:44.610Z,57.17
2017-09-25T08:32:53.608Z,57.17
2017-09-25T08:34:03.530Z,57.07
2017-09-25T08:35:12.836Z,57.07
2017-09-25T08:36:22.158Z,57.07
2017-09-25T08:37:31.222Z,57.17
2017-09-25T08:38:40.252Z,57.17
2017-09-25T08:39:49.251Z,57.17
2017-09-25T08:40:58.266Z,56.88
2017-09-25T08:42:07.583Z,56.98
2017-09-25T08:43:17.233Z,56.98
2017-09-25T08:44:26.555Z,56.88
2017-09-25T08:45:35.560Z,56.79
2017-09-25T08:46:44.884Z,56.79
2017-09-25T08:47:54.171Z,56.72
2017-09-25T08:49:03.490Z,56.79
2017-09-25T08:50:12.527Z,56.49
2017-09-25T08:51:21.516Z,56.21
2017-09-25T08:52:30.523Z,56.59
2017-09-25T08:53:39.847Z,56.43
2017-09-25T08:54:48.837Z,56.43
2017-09-25T08:55:57.496Z,56.43
2017-09-25T08:57:06.773Z,56.81
2017-09-25T08:58:16.072Z,56.81
2017-09-25T08:59:25.650Z,56.62
2017-09-25T09:00:34.310Z,56.52
2017-09-25T09:01:42.996Z,56.52
2017-09-25T09:02:51.647Z,56.52
2017-09-25T09:04:00.987Z,56.52
2017-09-25T09:05:09.643Z,56.43
2017-09-25T09:06:18.677Z,56.52
2017-09-25T09:07:27.997Z,56.43
2017-09-25T09:08:36.976Z,56.33
2017-09-25T09:09:46.273Z,56.52
2017-09-25T09:10:55.240Z,56.52
2017-09-25T09:12:04.236Z,56.62
2017-09-25T09:13:13.719Z,56.72
2017-09-25T09:14:22.704Z,56.81
2017-09-25T09:15:31.669Z,56.14
2017-09-25T09:16:40.670Z,56.24
2017-09-25T09:17:50.002Z,55.85
2017-09-25T09:18:58.987Z,56.14
2017-09-25T09:20:08.013Z,56.04
2017-09-25T09:21:16.999Z,56.04
2017-09-25T09:22:26.626Z,56.04
2017-09-25T09:23:35.307Z,56.14
2017-09-25T09:24:43.976Z,56.14
2017-09-25T09:25:53.664Z,56.24
2017-09-25T09:27:02.324Z,56.04
2017-09-25T09:28:11.621Z,56.04
2017-09-25T09:29:20.278Z,56.24
2017-09-25T09:30:29.594Z,56.14
2017-09-25T09:31:38.926Z,56.14
2017-09-25T09:32:48.268Z,55.94
2017-09-25T09:33:57.869Z,56.14
2017-09-25T09:35:07.167Z,55.76
2017-09-25T09:36:16.813Z,55.94
2017-09-25T09:37:25.821Z,56.33
2017-09-25T09:38:34.511Z,56.16
2017-09-25T09:39:43.512Z,56.16
2017-09-25T09:40:52.495Z,56.16
2017-09-25T09:42:02.125Z,56.16
2017-09-25T09:43:11.501Z,56.04
2017-09-25T09:44:20.810Z,56.16
2017-09-25T09:45:29.482Z,56.26
2017-09-25T09:46:38.793Z,56.07
2017-09-25T09:47:47.787Z,55.98
2017-09-25T09:48:57.452Z,56.46
2017-09-25T09:50:06.769Z,56.46
2017-09-25T09:51:16.113Z,55.88
2017-09-25T09:52:25.101Z,56.26
2017-09-25T09:53:34.100Z,56.16
2017-09-25T09:54:43.753Z,56.26
2017-09-25T09:55:53.060Z,56.26
2017-09-25T09:57:02.106Z,55.98
2017-09-25T09:58:12.034Z,55.98
2017-09-25T09:59:21.034Z,56.07
2017-09-25T10:00:30.018Z,55.98
2017-09-25T10:01:39.035Z,55.98
2017-09-25T10:02:48.669Z,56.16
2017-09-25T10:03:57.657Z,56.36
2017-09-25T10:05:07.606Z,56.26
2017-09-25T10:06:16.611Z,55.88
2017-09-25T10:07:25.593Z,55.78
2017-09-25T10:08:34.892Z,55.4
2017-09-25T10:09:44.039Z,55.78
2017-09-25T10:10:53.440Z,55.78
2017-09-25T10:12:02.552Z,55.78
2017-09-25T10:13:11.841Z,55.98
2017-09-25T10:14:20.850Z,55.88
2017-09-25T10:15:30.150Z,55.88
2017-09-25T10:16:39.128Z,55.59
2017-09-25T10:17:48.145Z,55.68
2017-09-25T10:18:57.483Z,55.78
2017-09-25T10:20:07.406Z,55.88
2017-09-25T10:21:16.403Z,55.98
2017-09-25T10:22:25.059Z,55.78
2017-09-25T10:23:33.737Z,55.88
2017-09-25T10:24:43.019Z,55.78
2017-09-25T10:25:52.002Z,55.88
2017-09-25T10:27:01.924Z,55.78
2017-09-25T10:28:11.300Z,55.98
2017-09-25T10:29:20.903Z,55.98
2017-09-25T10:30:29.932Z,55.98
2017-09-25T10:31:39.244Z,55.88
2017-09-25T10:32:48.240Z,55.88
2017-09-25T10:33:57.216Z,55.88
2017-09-25T10:35:05.869Z,55.88
2017-09-25T10:36:14.859Z,55.59
2017-09-25T10:37:23.656Z,55.78
2017-09-25T10:38:32.321Z,55.68
2017-09-25T10:39:41.301Z,55.68
2017-09-25T10:40:50.595Z,55.68
2017-09-25T10:41:59.561Z,55.59
2017-09-25T10:43:08.868Z,55.88
2017-09-25T10:44:18.171Z,55.68
2017-09-25T10:45:27.458Z,56.07
2017-09-25T10:46:36.151Z,56.07
2017-09-25T10:47:45.144Z,55.78
2017-09-25T10:48:53.816Z,55.88
2017-09-25T10:50:03.122Z,55.88
2017-09-25T10:51:12.328Z,55.68
2017-09-25T10:52:21.315Z,55.59
2017-09-25T10:53:30.973Z,55.49
2017-09-25T10:54:39.959Z,55.59
2017-09-25T10:55:48.943Z,55.68
2017-09-25T10:56:58.256Z,55.49
2017-09-25T10:58:06.919Z,55.4
2017-09-25T10:59:15.719Z,55.1
2017-09-25T11:00:24.728Z,55.68
2017-09-25T11:01:34.089Z,55.4
2017-09-25T11:02:43.346Z,55.2
2017-09-25T11:03:52.646Z,55.3
2017-09-25T11:05:01.637Z,55.2
2017-09-25T11:06:10.615Z,55.59
2017-09-25T11:07:19.934Z,55.4
2017-09-25T11:08:28.685Z,55.59
2017-09-25T11:09:37.370Z,55.4
2017-09-25T11:10:46.681Z,55.49
2017-09-25T11:11:55.754Z,55.49
2017-09-25T11:13:04.448Z,55.59
2017-09-25T11:14:13.452Z,55.3
2017-09-25T11:15:22.469Z,55.2
2017-09-25T11:16:31.471Z,55.1
2017-09-25T11:17:41.100Z,55.2
2017-09-25T11:18:50.419Z,55.1
2017-09-25T11:19:59.401Z,55.1
2017-09-25T11:21:08.392Z,55.2
2017-09-25T11:22:17.377Z,55.4
2017-09-25T11:23:26.705Z,55.78
2017-09-25T11:24:35.719Z,55.68
2017-09-25T11:25:45.359Z,55.68
2017-09-25T11:26:54.340Z,55.88
2017-09-25T11:28:03.320Z,55.78
2017-09-25T11:29:12.317Z,55.78
2017-09-25T11:30:21.297Z,55.68
2017-09-25T11:31:30.268Z,56.16
2017-09-25T11:32:39.552Z,55.98
2017-09-25T11:33:49.153Z,55.98
2017-09-25T11:34:58.456Z,56.26
2017-09-25T11:36:07.125Z,55.98
2017-09-25T11:37:16.427Z,56.26
2017-09-25T11:38:25.091Z,56.07
2017-09-25T11:39:34.692Z,56.16
2017-09-25T11:40:43.705Z,56.07
2017-09-25T11:41:53.007Z,56.16
2017-09-25T11:43:01.672Z,56.36
2017-09-25T11:44:10.978Z,56.16
2017-09-25T11:45:20.579Z,56.16
2017-09-25T11:46:29.612Z,56.07
2017-09-25T11:47:38.592Z,56.07
2017-09-25T11:48:47.256Z,56.07
2017-09-25T11:49:56.562Z,55.98
2017-09-25T11:51:05.851Z,55.88
2017-09-25T11:52:15.139Z,56.16
2017-09-25T11:53:24.167Z,55.98
2017-09-25T11:54:33.138Z,56.16
2017-09-25T11:55:42.561Z,56.16
2017-09-25T11:56:51.533Z,56.07
2017-09-25T11:58:00.520Z,56.14
2017-09-25T11:59:09.503Z,55.85
2017-09-25T12:00:18.177Z,56.16
2017-09-25T12:01:27.166Z,56.07
2017-09-25T12:02:35.852Z,55.88
2017-09-25T12:03:45.172Z,55.98
2017-09-25T12:04:54.454Z,55.88
2017-09-25T12:06:03.444Z,56.07
2017-09-25T12:07:12.733Z,55.94
2017-09-25T12:08:21.713Z,55.88
2017-09-25T12:09:31.018Z,56.07
2017-09-25T12:10:39.999Z,55.88
2017-09-25T12:11:49.300Z,55.98
2017-09-25T12:12:58.609Z,55.98
2017-09-25T12:14:07.895Z,56.04
2017-09-25T12:15:17.191Z,56.24
2017-09-25T12:16:26.245Z,56.07
2017-09-25T12:17:35.213Z,56.07
2017-09-25T12:18:44.507Z,56.16
2017-09-25T12:19:53.509Z,56.16
2017-09-25T12:21:02.507Z,56.07
2017-09-25T12:22:11.487Z,55.98
2017-09-25T12:23:20.155Z,56.36
2017-09-25T12:24:30.087Z,56.26
2017-09-25T12:25:39.052Z,56.26
2017-09-25T12:26:47.709Z,55.88
2017-09-25T12:27:56.377Z,56.36
2017-09-25T12:29:05.056Z,55.88
2017-09-25T12:30:13.724Z,55.88
2017-09-25T12:31:22.701Z,56.07
2017-09-25T12:32:31.999Z,56.16
2017-09-25T12:33:40.663Z,55.98
2017-09-25T12:34:49.963Z,55.98
2017-09-25T12:35:58.660Z,56.26
2017-09-25T12:37:07.960Z,56.26
2017-09-25T12:38:16.960Z,56.07
2017-09-25T12:39:25.624Z,55.59
2017-09-25T12:40:34.906Z,55.78
2017-09-25T12:41:43.891Z,55.78
2017-09-25T12:42:52.904Z,55.78
2017-09-25T12:44:02.203Z,55.88
2017-09-25T12:45:11.191Z,55.78
2017-09-25T12:46:19.871Z,55.4
2017-09-25T12:47:28.864Z,55.68
2017-09-25T12:48:37.876Z,55.2
2017-09-25T12:49:47.187Z,55.4
2017-09-25T12:50:56.820Z,55.49
2017-09-25T12:52:05.480Z,55.59
2017-09-25T12:53:15.407Z,55.88
2017-09-25T12:54:24.484Z,55.68
2017-09-25T12:55:33.159Z,55.88
2017-09-25T12:56:42.476Z,55.78
2017-09-25T12:57:51.475Z,55.59
2017-09-25T12:59:01.087Z,55.88
2017-09-25T13:00:10.057Z,55.88
2017-09-25T13:01:18.740Z,56.07
2017-09-25T13:02:28.037Z,55.88
2017-09-25T13:03:36.772Z,55.98
2017-09-25T13:04:46.076Z,56.07
2017-09-25T13:05:55.068Z,56.16
2017-09-25T13:07:03.738Z,56.07
2017-09-25T13:08:12.715Z,55.88
2017-09-25T13:09:21.922Z,55.88
2017-09-25T13:10:31.063Z,55.88
2017-09-25T13:11:40.043Z,56.36
2017-09-25T13:12:48.740Z,56.46
2017-09-25T13:13:57.731Z,56.16
2017-09-25T13:15:07.496Z,56.26
2017-09-25T13:16:17.186Z,56.07
2017-09-25T13:17:26.174Z,55.98
2017-09-25T13:18:34.862Z,55.98
2017-09-25T13:19:43.876Z,55.98
2017-09-25T13:20:52.845Z,56.07
2017-09-25T13:22:01.815Z,56.26
2017-09-25T13:23:10.784Z,56.46
2017-09-25T13:24:19.768Z,56.16
2017-09-25T13:25:29.086Z,56.46
2017-09-25T13:26:38.064Z,55.88
2017-09-25T13:27:47.710Z,56.07
2017-09-25T13:28:57.025Z,55.88
2017-09-25T13:30:06.043Z,56.07
2017-09-25T13:31:14.699Z,56.07
2017-09-25T13:32:23.708Z,55.98
2017-09-25T13:33:33.097Z,56.16
2017-09-25T13:34:42.112Z,55.98
2017-09-25T13:35:51.276Z,55.98
2017-09-25T13:37:00.603Z,56.07
2017-09-25T13:38:09.577Z,56.07
2017-09-25T13:39:18.261Z,55.98
2017-09-25T13:40:26.941Z,56.36
2017-09-25T13:41:36.600Z,56.36
2017-09-25T13:42:45.820Z,56.07
2017-09-25T13:43:55.141Z,55.88
2017-09-25T13:45:04.139Z,55.78
2017-09-25T13:46:13.797Z,55.88
2017-09-25T13:47:23.116Z,55.98
2017-09-25T13:48:32.447Z,55.88
2017-09-25T13:49:41.502Z,55.78
2017-09-25T13:50:50.555Z,55.78
2017-09-25T13:51:59.237Z,55.78
2017-09-25T13:53:08.216Z,55.68
2017-09-25T13:54:16.882Z,55.98
2017-09-25T13:55:26.181Z,55.68
2017-09-25T13:56:36.132Z,55.98
2017-09-25T13:57:45.420Z,55.78
2017-09-25T14:02:43.232Z,55.68
2017-09-25T14:03:52.842Z,55.59
2017-09-25T14:05:01.553Z,55.68
2017-09-25T14:06:10.216Z,55.68
2017-09-25T14:07:20.185Z,55.68
2017-09-25T14:08:28.887Z,55.68
2017-09-25T14:09:37.885Z,55.68
2017-09-25T14:10:47.489Z,55.78
2017-09-25T14:11:56.462Z,55.88
2017-09-25T14:13:05.132Z,55.78
2017-09-25T14:14:14.120Z,55.88
2017-09-25T14:15:23.425Z,55.88
2017-09-25T14:16:32.126Z,55.98
2017-09-25T14:17:41.105Z,55.78
2017-09-25T14:18:50.090Z,55.88
2017-09-25T14:19:59.068Z,55.88
2017-09-25T14:21:07.773Z,55.88
2017-09-25T14:22:16.768Z,55.78
2017-09-25T14:23:25.741Z,55.49
2017-09-25T14:24:35.054Z,55.88
2017-09-25T14:25:43.734Z,55.49
2017-09-25T14:26:53.705Z,55.68
2017-09-25T14:28:03.000Z,55.78
2017-09-25T14:29:12.005Z,55.68
2017-09-25T14:30:20.710Z,55.88
2017-09-25T14:31:29.701Z,55.59
2017-09-25T14:32:39.033Z,55.68
2017-09-25T14:33:48.336Z,55.49
2017-09-25T14:34:57.008Z,55.4
2017-09-25T14:36:06.036Z,55.4
2017-09-25T14:37:15.492Z,55.49
2017-09-25T14:38:24.178Z,55.59
2017-09-25T14:39:33.171Z,55.2
2017-09-25T14:40:42.182Z,55.4
2017-09-25T14:41:51.483Z,55.3
2017-09-25T14:43:00.177Z,55.49
2017-09-25T14:44:09.490Z,55.59
2017-09-25T14:45:18.223Z,55.3
2017-09-25T14:46:27.198Z,55.2
2017-09-25T14:47:36.176Z,55.3
2017-09-25T14:48:44.845Z,55.2
2017-09-25T14:49:54.461Z,55.3
2017-09-25T14:51:03.476Z,55.2
2017-09-25T14:52:12.467Z,55.2
2017-09-25T14:53:21.451Z,55.1
2017-09-25T14:54:30.120Z,55.4
2017-09-25T14:55:39.104Z,55.1